sensor_id;sensor_type;location;lat;lon;timestamp;P1;durP1;ratioP1;P2;durP2;ratioP2
51578;SDS011;47998;53.242;6.386;2024-02-28T00:02:11;165.53;;;36.33;;
51578;SDS011;47998;53.242;6.386;2024-02-28T00:04:37;181.27;;;40.23;;
51578;SDS011;47998;53.242;6.386;2024-02-28T00:07:05;163.23;;;40.30;;
51578;SDS011;47998;53.242;6.386;2024-02-28T00:09:30;93.20;;;28.67;;
51578;SDS011;47998;53.242;6.386;2024-02-28T00:11:56;138.77;;;35.83;;
51578;SDS011;47998;53.242;6.386;2024-02-28T00:14:22;128.27;;;35.55;;
51578;SDS011;47998;53.242;6.386;2024-02-28T00:16:48;92.88;;;31.02;;
51578;SDS011;47998;53.242;6.386;2024-02-28T00:19:13;81.63;;;30.33;;
51578;SDS011;47998;53.242;6.386;2024-02-28T00:21:40;78.10;;;29.43;;
51578;SDS011;47998;53.242;6.386;2024-02-28T00:24:06;63.83;;;24.30;;
51578;SDS011;47998;53.242;6.386;2024-02-28T00:26:32;82.43;;;30.03;;
51578;SDS011;47998;53.242;6.386;2024-02-28T00:28:58;59.47;;;24.23;;
51578;SDS011;47998;53.242;6.386;2024-02-28T00:31:24;90.30;;;31.87;;
51578;SDS011;47998;53.242;6.386;2024-02-28T00:33:50;84.17;;;30.20;;
51578;SDS011;47998;53.242;6.386;2024-02-28T00:36:16;63.53;;;23.50;;
51578;SDS011;47998;53.242;6.386;2024-02-28T00:38:43;71.13;;;27.50;;
51578;SDS011;47998;53.242;6.386;2024-02-28T00:41:08;70.55;;;27.98;;
51578;SDS011;47998;53.242;6.386;2024-02-28T00:43:34;63.30;;;25.77;;
51578;SDS011;47998;53.242;6.386;2024-02-28T00:46:00;64.63;;;27.50;;
51578;SDS011;47998;53.242;6.386;2024-02-28T00:48:26;83.77;;;31.33;;
51578;SDS011;47998;53.242;6.386;2024-02-28T00:50:52;87.85;;;32.10;;
51578;SDS011;47998;53.242;6.386;2024-02-28T00:53:18;66.93;;;26.23;;
51578;SDS011;47998;53.242;6.386;2024-02-28T00:55:44;77.45;;;29.48;;
51578;SDS011;47998;53.242;6.386;2024-02-28T00:58:10;78.88;;;30.45;;
51578;SDS011;47998;53.242;6.386;2024-02-28T01:00:36;89.60;;;32.22;;
51578;SDS011;47998;53.242;6.386;2024-02-28T01:03:02;77.47;;;29.03;;
51578;SDS011;47998;53.242;6.386;2024-02-28T01:05:34;72.45;;;27.88;;
51578;SDS011;47998;53.242;6.386;2024-02-28T01:08:00;89.30;;;32.67;;
51578;SDS011;47998;53.242;6.386;2024-02-28T01:10:25;96.23;;;33.00;;
51578;SDS011;47998;53.242;6.386;2024-02-28T01:12:51;82.22;;;29.77;;
51578;SDS011;47998;53.242;6.386;2024-02-28T01:15:17;79.30;;;28.70;;
51578;SDS011;47998;53.242;6.386;2024-02-28T01:17:43;72.65;;;27.05;;
51578;SDS011;47998;53.242;6.386;2024-02-28T01:20:09;71.70;;;26.45;;
51578;SDS011;47998;53.242;6.386;2024-02-28T01:22:35;86.75;;;30.30;;
51578;SDS011;47998;53.242;6.386;2024-02-28T01:25:04;94.88;;;31.95;;
51578;SDS011;47998;53.242;6.386;2024-02-28T01:27:30;97.97;;;29.83;;
51578;SDS011;47998;53.242;6.386;2024-02-28T01:29:57;91.97;;;30.80;;
51578;SDS011;47998;53.242;6.386;2024-02-28T01:32:22;90.73;;;29.57;;
51578;SDS011;47998;53.242;6.386;2024-02-28T01:34:48;90.25;;;30.40;;
51578;SDS011;47998;53.242;6.386;2024-02-28T01:37:14;104.73;;;33.97;;
51578;SDS011;47998;53.242;6.386;2024-02-28T01:39:40;79.90;;;27.92;;
51578;SDS011;47998;53.242;6.386;2024-02-28T01:42:05;94.72;;;33.08;;
51578;SDS011;47998;53.242;6.386;2024-02-28T01:44:31;104.82;;;33.88;;
51578;SDS011;47998;53.242;6.386;2024-02-28T01:47:03;90.50;;;32.17;;
51578;SDS011;47998;53.242;6.386;2024-02-28T01:49:29;92.18;;;31.13;;
51578;SDS011;47998;53.242;6.386;2024-02-28T01:51:55;105.72;;;36.25;;
51578;SDS011;47998;53.242;6.386;2024-02-28T01:54:21;127.60;;;37.30;;
51578;SDS011;47998;53.242;6.386;2024-02-28T01:56:48;102.40;;;33.83;;
51578;SDS011;47998;53.242;6.386;2024-02-28T01:59:14;121.22;;;37.22;;
51578;SDS011;47998;53.242;6.386;2024-02-28T02:01:41;125.07;;;35.03;;
51578;SDS011;47998;53.242;6.386;2024-02-28T02:04:07;121.80;;;37.33;;
51578;SDS011;47998;53.242;6.386;2024-02-28T02:06:33;137.45;;;36.83;;
51578;SDS011;47998;53.242;6.386;2024-02-28T02:09:04;175.60;;;39.70;;
51578;SDS011;47998;53.242;6.386;2024-02-28T02:11:29;149.60;;;38.25;;
51578;SDS011;47998;53.242;6.386;2024-02-28T02:13:55;153.30;;;39.15;;
51578;SDS011;47998;53.242;6.386;2024-02-28T02:16:21;169.95;;;40.95;;
51578;SDS011;47998;53.242;6.386;2024-02-28T02:18:47;172.17;;;43.50;;
51578;SDS011;47998;53.242;6.386;2024-02-28T02:21:15;182.37;;;42.13;;
51578;SDS011;47998;53.242;6.386;2024-02-28T02:23:43;174.90;;;40.15;;
51578;SDS011;47998;53.242;6.386;2024-02-28T02:26:09;193.88;;;41.45;;
51578;SDS011;47998;53.242;6.386;2024-02-28T02:28:35;216.02;;;43.25;;
51578;SDS011;47998;53.242;6.386;2024-02-28T02:31:00;163.85;;;36.38;;
51578;SDS011;47998;53.242;6.386;2024-02-28T02:33:26;149.02;;;38.05;;
51578;SDS011;47998;53.242;6.386;2024-02-28T02:35:53;133.10;;;36.70;;
51578;SDS011;47998;53.242;6.386;2024-02-28T02:38:19;140.73;;;39.92;;
51578;SDS011;47998;53.242;6.386;2024-02-28T02:40:48;134.17;;;39.43;;
51578;SDS011;47998;53.242;6.386;2024-02-28T02:43:15;145.88;;;39.83;;
51578;SDS011;47998;53.242;6.386;2024-02-28T02:45:40;159.93;;;40.35;;
51578;SDS011;47998;53.242;6.386;2024-02-28T02:48:06;151.17;;;41.53;;
51578;SDS011;47998;53.242;6.386;2024-02-28T02:50:32;161.07;;;41.28;;
51578;SDS011;47998;53.242;6.386;2024-02-28T02:52:58;162.45;;;41.17;;
51578;SDS011;47998;53.242;6.386;2024-02-28T02:55:24;145.20;;;37.72;;
51578;SDS011;47998;53.242;6.386;2024-02-28T02:57:49;136.65;;;39.92;;
51578;SDS011;47998;53.242;6.386;2024-02-28T03:00:15;129.68;;;36.97;;
51578;SDS011;47998;53.242;6.386;2024-02-28T03:02:41;127.25;;;35.95;;
51578;SDS011;47998;53.242;6.386;2024-02-28T03:05:07;116.30;;;33.40;;
51578;SDS011;47998;53.242;6.386;2024-02-28T03:07:33;107.70;;;33.50;;
51578;SDS011;47998;53.242;6.386;2024-02-28T03:09:58;91.57;;;31.27;;
51578;SDS011;47998;53.242;6.386;2024-02-28T03:12:24;104.50;;;33.55;;
51578;SDS011;47998;53.242;6.386;2024-02-28T03:14:50;111.32;;;35.25;;
51578;SDS011;47998;53.242;6.386;2024-02-28T03:17:16;80.95;;;30.90;;
51578;SDS011;47998;53.242;6.386;2024-02-28T03:19:42;103.75;;;37.22;;
51578;SDS011;47998;53.242;6.386;2024-02-28T03:22:07;91.88;;;34.17;;
51578;SDS011;47998;53.242;6.386;2024-02-28T03:24:33;101.40;;;35.92;;
51578;SDS011;47998;53.242;6.386;2024-02-28T03:27:02;102.07;;;36.92;;
51578;SDS011;47998;53.242;6.386;2024-02-28T03:29:28;91.45;;;32.75;;
51578;SDS011;47998;53.242;6.386;2024-02-28T03:31:54;87.80;;;33.42;;
51578;SDS011;47998;53.242;6.386;2024-02-28T03:34:20;93.65;;;32.55;;
51578;SDS011;47998;53.242;6.386;2024-02-28T03:36:46;87.57;;;32.47;;
51578;SDS011;47998;53.242;6.386;2024-02-28T03:39:12;99.13;;;33.58;;
51578;SDS011;47998;53.242;6.386;2024-02-28T03:41:38;80.70;;;31.98;;
51578;SDS011;47998;53.242;6.386;2024-02-28T03:44:04;89.43;;;34.42;;
51578;SDS011;47998;53.242;6.386;2024-02-28T03:46:30;74.35;;;29.55;;
51578;SDS011;47998;53.242;6.386;2024-02-28T03:48:56;82.85;;;34.28;;
51578;SDS011;47998;53.242;6.386;2024-02-28T03:51:22;80.65;;;30.67;;
51578;SDS011;47998;53.242;6.386;2024-02-28T03:53:48;81.57;;;33.33;;
51578;SDS011;47998;53.242;6.386;2024-02-28T03:56:21;95.35;;;37.00;;
51578;SDS011;47998;53.242;6.386;2024-02-28T03:58:48;81.15;;;33.83;;
51578;SDS011;47998;53.242;6.386;2024-02-28T04:01:14;77.87;;;32.20;;
51578;SDS011;47998;53.242;6.386;2024-02-28T04:03:39;77.95;;;32.35;;
51578;SDS011;47998;53.242;6.386;2024-02-28T04:06:05;90.68;;;34.90;;
51578;SDS011;47998;53.242;6.386;2024-02-28T04:08:31;90.97;;;35.38;;
51578;SDS011;47998;53.242;6.386;2024-02-28T04:10:56;101.97;;;38.28;;
51578;SDS011;47998;53.242;6.386;2024-02-28T04:13:22;90.63;;;34.55;;
51578;SDS011;47998;53.242;6.386;2024-02-28T04:15:47;93.50;;;35.50;;
51578;SDS011;47998;53.242;6.386;2024-02-28T04:18:13;99.07;;;36.70;;
51578;SDS011;47998;53.242;6.386;2024-02-28T04:20:39;88.43;;;34.45;;
51578;SDS011;47998;53.242;6.386;2024-02-28T04:23:05;89.75;;;35.30;;
51578;SDS011;47998;53.242;6.386;2024-02-28T04:25:30;95.03;;;36.67;;
51578;SDS011;47998;53.242;6.386;2024-02-28T04:27:56;92.75;;;36.97;;
51578;SDS011;47998;53.242;6.386;2024-02-28T04:30:24;84.95;;;34.33;;
51578;SDS011;47998;53.242;6.386;2024-02-28T04:32:50;88.07;;;33.05;;
51578;SDS011;47998;53.242;6.386;2024-02-28T04:35:16;85.22;;;34.58;;
51578;SDS011;47998;53.242;6.386;2024-02-28T04:37:46;78.97;;;32.33;;
51578;SDS011;47998;53.242;6.386;2024-02-28T04:40:12;82.32;;;33.58;;
51578;SDS011;47998;53.242;6.386;2024-02-28T04:42:42;81.93;;;33.85;;
51578;SDS011;47998;53.242;6.386;2024-02-28T04:45:10;80.72;;;35.05;;
51578;SDS011;47998;53.242;6.386;2024-02-28T04:47:36;89.40;;;35.33;;
51578;SDS011;47998;53.242;6.386;2024-02-28T04:50:03;80.80;;;35.90;;
51578;SDS011;47998;53.242;6.386;2024-02-28T04:52:30;77.82;;;33.38;;
51578;SDS011;47998;53.242;6.386;2024-02-28T04:54:56;78.82;;;33.88;;
51578;SDS011;47998;53.242;6.386;2024-02-28T04:57:22;83.20;;;34.63;;
51578;SDS011;47998;53.242;6.386;2024-02-28T04:59:47;78.60;;;33.20;;
51578;SDS011;47998;53.242;6.386;2024-02-28T05:02:13;82.38;;;35.45;;
51578;SDS011;47998;53.242;6.386;2024-02-28T05:04:39;88.07;;;35.83;;
51578;SDS011;47998;53.242;6.386;2024-02-28T05:07:04;81.47;;;33.92;;
51578;SDS011;47998;53.242;6.386;2024-02-28T05:09:32;80.10;;;33.45;;
51578;SDS011;47998;53.242;6.386;2024-02-28T05:11:58;77.05;;;34.53;;
51578;SDS011;47998;53.242;6.386;2024-02-28T05:14:24;81.43;;;34.30;;
51578;SDS011;47998;53.242;6.386;2024-02-28T05:16:50;74.57;;;33.88;;
51578;SDS011;47998;53.242;6.386;2024-02-28T05:19:16;75.00;;;33.75;;
51578;SDS011;47998;53.242;6.386;2024-02-28T05:21:43;78.15;;;36.45;;
51578;SDS011;47998;53.242;6.386;2024-02-28T05:24:09;73.75;;;31.88;;
51578;SDS011;47998;53.242;6.386;2024-02-28T05:26:36;83.85;;;34.45;;
51578;SDS011;47998;53.242;6.386;2024-02-28T05:29:02;75.90;;;33.78;;
51578;SDS011;47998;53.242;6.386;2024-02-28T05:31:29;80.75;;;33.65;;
51578;SDS011;47998;53.242;6.386;2024-02-28T05:33:56;78.60;;;34.97;;
51578;SDS011;47998;53.242;6.386;2024-02-28T05:36:24;78.57;;;33.35;;
51578;SDS011;47998;53.242;6.386;2024-02-28T05:38:52;79.32;;;35.40;;
51578;SDS011;47998;53.242;6.386;2024-02-28T05:41:19;75.80;;;36.67;;
51578;SDS011;47998;53.242;6.386;2024-02-28T05:43:46;79.97;;;34.63;;
51578;SDS011;47998;53.242;6.386;2024-02-28T05:46:13;64.20;;;31.63;;
51578;SDS011;47998;53.242;6.386;2024-02-28T05:48:43;71.22;;;33.25;;
51578;SDS011;47998;53.242;6.386;2024-02-28T05:51:10;82.32;;;34.30;;
51578;SDS011;47998;53.242;6.386;2024-02-28T05:53:36;67.18;;;32.30;;
51578;SDS011;47998;53.242;6.386;2024-02-28T05:56:03;71.45;;;30.83;;
51578;SDS011;47998;53.242;6.386;2024-02-28T05:58:30;70.25;;;32.45;;
51578;SDS011;47998;53.242;6.386;2024-02-28T06:00:55;66.13;;;30.67;;
51578;SDS011;47998;53.242;6.386;2024-02-28T06:03:22;71.32;;;32.17;;
51578;SDS011;47998;53.242;6.386;2024-02-28T06:05:47;59.35;;;26.45;;
51578;SDS011;47998;53.242;6.386;2024-02-28T06:08:13;71.82;;;33.22;;
51578;SDS011;47998;53.242;6.386;2024-02-28T06:10:39;74.22;;;32.78;;
51578;SDS011;47998;53.242;6.386;2024-02-28T06:13:07;67.82;;;32.78;;
51578;SDS011;47998;53.242;6.386;2024-02-28T06:15:33;71.80;;;31.73;;
51578;SDS011;47998;53.242;6.386;2024-02-28T06:17:59;88.25;;;35.53;;
51578;SDS011;47998;53.242;6.386;2024-02-28T06:20:27;80.32;;;35.97;;
51578;SDS011;47998;53.242;6.386;2024-02-28T06:22:53;86.90;;;34.67;;
51578;SDS011;47998;53.242;6.386;2024-02-28T06:25:19;90.72;;;37.13;;
51578;SDS011;47998;53.242;6.386;2024-02-28T06:27:47;102.38;;;38.83;;
51578;SDS011;47998;53.242;6.386;2024-02-28T06:30:14;101.28;;;37.47;;
51578;SDS011;47998;53.242;6.386;2024-02-28T06:32:40;100.18;;;36.88;;
51578;SDS011;47998;53.242;6.386;2024-02-28T06:35:09;100.25;;;39.00;;
51578;SDS011;47998;53.242;6.386;2024-02-28T06:37:35;101.03;;;39.00;;
51578;SDS011;47998;53.242;6.386;2024-02-28T06:40:02;111.00;;;39.15;;
51578;SDS011;47998;53.242;6.386;2024-02-28T06:42:29;109.57;;;41.20;;
51578;SDS011;47998;53.242;6.386;2024-02-28T06:44:55;120.32;;;41.35;;
51578;SDS011;47998;53.242;6.386;2024-02-28T06:47:21;133.10;;;42.10;;
51578;SDS011;47998;53.242;6.386;2024-02-28T06:49:46;105.40;;;39.33;;
51578;SDS011;47998;53.242;6.386;2024-02-28T06:52:13;129.15;;;42.92;;
51578;SDS011;47998;53.242;6.386;2024-02-28T06:54:39;117.05;;;40.17;;
51578;SDS011;47998;53.242;6.386;2024-02-28T06:57:05;134.75;;;43.05;;
51578;SDS011;47998;53.242;6.386;2024-02-28T06:59:30;129.18;;;42.88;;
51578;SDS011;47998;53.242;6.386;2024-02-28T07:01:56;126.18;;;42.75;;
51578;SDS011;47998;53.242;6.386;2024-02-28T07:04:22;135.65;;;42.80;;
51578;SDS011;47998;53.242;6.386;2024-02-28T07:06:48;124.25;;;39.85;;
51578;SDS011;47998;53.242;6.386;2024-02-28T07:09:14;125.63;;;42.72;;
51578;SDS011;47998;53.242;6.386;2024-02-28T07:11:40;122.97;;;41.83;;
51578;SDS011;47998;53.242;6.386;2024-02-28T07:14:06;114.63;;;40.40;;
51578;SDS011;47998;53.242;6.386;2024-02-28T07:16:32;124.05;;;41.85;;
51578;SDS011;47998;53.242;6.386;2024-02-28T07:18:59;118.75;;;42.80;;
51578;SDS011;47998;53.242;6.386;2024-02-28T07:21:28;123.85;;;42.58;;
51578;SDS011;47998;53.242;6.386;2024-02-28T07:23:55;106.22;;;40.35;;
51578;SDS011;47998;53.242;6.386;2024-02-28T07:26:21;117.05;;;42.85;;
51578;SDS011;47998;53.242;6.386;2024-02-28T07:28:47;94.47;;;39.80;;
51578;SDS011;47998;53.242;6.386;2024-02-28T07:31:20;95.93;;;40.17;;
51578;SDS011;47998;53.242;6.386;2024-02-28T07:33:47;91.45;;;38.78;;
51578;SDS011;47998;53.242;6.386;2024-02-28T07:36:13;121.40;;;44.88;;
51578;SDS011;47998;53.242;6.386;2024-02-28T07:38:40;84.80;;;37.67;;
51578;SDS011;47998;53.242;6.386;2024-02-28T07:41:07;77.30;;;35.20;;
51578;SDS011;47998;53.242;6.386;2024-02-28T07:43:32;79.78;;;37.97;;
51578;SDS011;47998;53.242;6.386;2024-02-28T07:46:11;83.50;;;37.22;;
51578;SDS011;47998;53.242;6.386;2024-02-28T07:48:37;93.18;;;39.28;;
51578;SDS011;47998;53.242;6.386;2024-02-28T07:51:04;78.63;;;36.15;;
51578;SDS011;47998;53.242;6.386;2024-02-28T07:53:30;79.88;;;34.97;;
51578;SDS011;47998;53.242;6.386;2024-02-28T07:55:56;76.78;;;36.88;;
51578;SDS011;47998;53.242;6.386;2024-02-28T07:58:21;81.75;;;35.05;;
51578;SDS011;47998;53.242;6.386;2024-02-28T08:00:47;81.85;;;36.85;;
51578;SDS011;47998;53.242;6.386;2024-02-28T08:03:13;75.32;;;38.40;;
51578;SDS011;47998;53.242;6.386;2024-02-28T08:05:39;72.22;;;35.85;;
51578;SDS011;47998;53.242;6.386;2024-02-28T08:08:05;59.95;;;32.13;;
51578;SDS011;47998;53.242;6.386;2024-02-28T08:10:31;65.47;;;33.95;;
51578;SDS011;47998;53.242;6.386;2024-02-28T08:12:57;74.22;;;36.33;;
51578;SDS011;47998;53.242;6.386;2024-02-28T08:15:22;64.47;;;32.55;;
51578;SDS011;47998;53.242;6.386;2024-02-28T08:17:48;69.20;;;35.25;;
51578;SDS011;47998;53.242;6.386;2024-02-28T08:20:14;66.07;;;34.00;;
51578;SDS011;47998;53.242;6.386;2024-02-28T08:22:40;70.93;;;37.03;;
51578;SDS011;47998;53.242;6.386;2024-02-28T08:25:06;65.13;;;33.47;;
51578;SDS011;47998;53.242;6.386;2024-02-28T08:27:33;71.25;;;35.45;;
51578;SDS011;47998;53.242;6.386;2024-02-28T08:30:00;64.57;;;32.60;;
51578;SDS011;47998;53.242;6.386;2024-02-28T08:32:25;68.60;;;35.47;;
51578;SDS011;47998;53.242;6.386;2024-02-28T08:34:51;64.28;;;33.42;;
51578;SDS011;47998;53.242;6.386;2024-02-28T08:37:19;59.30;;;31.10;;
51578;SDS011;47998;53.242;6.386;2024-02-28T08:39:45;68.70;;;35.33;;
51578;SDS011;47998;53.242;6.386;2024-02-28T08:42:10;75.15;;;34.67;;
51578;SDS011;47998;53.242;6.386;2024-02-28T08:44:37;52.55;;;30.63;;
51578;SDS011;47998;53.242;6.386;2024-02-28T08:47:03;64.47;;;32.83;;
51578;SDS011;47998;53.242;6.386;2024-02-28T08:49:29;52.67;;;28.73;;
51578;SDS011;47998;53.242;6.386;2024-02-28T08:51:56;66.18;;;31.40;;
51578;SDS011;47998;53.242;6.386;2024-02-28T08:54:22;61.63;;;35.08;;
51578;SDS011;47998;53.242;6.386;2024-02-28T08:56:48;63.65;;;33.80;;
51578;SDS011;47998;53.242;6.386;2024-02-28T08:59:14;59.10;;;32.70;;
51578;SDS011;47998;53.242;6.386;2024-02-28T09:01:39;60.40;;;34.45;;
51578;SDS011;47998;53.242;6.386;2024-02-28T09:04:06;65.88;;;32.88;;
51578;SDS011;47998;53.242;6.386;2024-02-28T09:06:32;60.50;;;32.55;;
51578;SDS011;47998;53.242;6.386;2024-02-28T09:08:58;59.10;;;33.28;;
51578;SDS011;47998;53.242;6.386;2024-02-28T09:11:24;55.33;;;32.67;;
51578;SDS011;47998;53.242;6.386;2024-02-28T09:13:52;61.53;;;33.30;;
51578;SDS011;47998;53.242;6.386;2024-02-28T09:16:18;59.08;;;31.42;;
51578;SDS011;47998;53.242;6.386;2024-02-28T09:18:44;63.03;;;33.38;;
51578;SDS011;47998;53.242;6.386;2024-02-28T09:21:09;58.97;;;32.47;;
51578;SDS011;47998;53.242;6.386;2024-02-28T09:23:35;58.42;;;32.72;;
51578;SDS011;47998;53.242;6.386;2024-02-28T09:26:04;59.65;;;32.65;;
51578;SDS011;47998;53.242;6.386;2024-02-28T09:28:30;64.18;;;35.78;;
51578;SDS011;47998;53.242;6.386;2024-02-28T09:30:56;61.20;;;33.33;;
51578;SDS011;47998;53.242;6.386;2024-02-28T09:33:22;59.78;;;32.95;;
51578;SDS011;47998;53.242;6.386;2024-02-28T09:35:48;68.25;;;34.38;;
51578;SDS011;47998;53.242;6.386;2024-02-28T09:38:14;65.13;;;32.33;;
51578;SDS011;47998;53.242;6.386;2024-02-28T09:40:40;73.07;;;35.60;;
51578;SDS011;47998;53.242;6.386;2024-02-28T09:43:10;57.85;;;31.27;;
51578;SDS011;47998;53.242;6.386;2024-02-28T09:45:40;59.47;;;34.10;;
51578;SDS011;47998;53.242;6.386;2024-02-28T09:48:06;61.22;;;33.72;;
51578;SDS011;47998;53.242;6.386;2024-02-28T09:50:34;59.92;;;33.65;;
51578;SDS011;47998;53.242;6.386;2024-02-28T09:53:00;64.93;;;34.17;;
51578;SDS011;47998;53.242;6.386;2024-02-28T09:55:26;52.65;;;30.98;;
51578;SDS011;47998;53.242;6.386;2024-02-28T09:57:52;64.68;;;34.65;;
51578;SDS011;47998;53.242;6.386;2024-02-28T10:00:19;61.80;;;33.30;;
51578;SDS011;47998;53.242;6.386;2024-02-28T10:02:46;54.00;;;31.10;;
51578;SDS011;47998;53.242;6.386;2024-02-28T10:05:16;60.35;;;32.22;;
51578;SDS011;47998;53.242;6.386;2024-02-28T10:07:44;55.47;;;31.65;;
51578;SDS011;47998;53.242;6.386;2024-02-28T10:10:11;57.40;;;32.20;;
51578;SDS011;47998;53.242;6.386;2024-02-28T10:12:45;55.38;;;31.98;;
51578;SDS011;47998;53.242;6.386;2024-02-28T10:15:11;50.85;;;29.77;;
51578;SDS011;47998;53.242;6.386;2024-02-28T10:17:37;58.13;;;31.25;;
51578;SDS011;47998;53.242;6.386;2024-02-28T10:20:03;66.35;;;34.42;;
51578;SDS011;47998;53.242;6.386;2024-02-28T10:22:35;53.08;;;32.03;;
51578;SDS011;47998;53.242;6.386;2024-02-28T10:25:01;60.58;;;34.38;;
51578;SDS011;47998;53.242;6.386;2024-02-28T10:27:31;61.22;;;34.20;;
51578;SDS011;47998;53.242;6.386;2024-02-28T10:29:57;54.80;;;31.77;;
51578;SDS011;47998;53.242;6.386;2024-02-28T10:32:23;55.63;;;33.55;;
51578;SDS011;47998;53.242;6.386;2024-02-28T10:34:49;57.75;;;31.77;;
51578;SDS011;47998;53.242;6.386;2024-02-28T10:37:15;54.50;;;32.60;;
51578;SDS011;47998;53.242;6.386;2024-02-28T10:39:42;61.78;;;34.72;;
51578;SDS011;47998;53.242;6.386;2024-02-28T10:42:09;58.40;;;34.33;;
51578;SDS011;47998;53.242;6.386;2024-02-28T10:44:36;58.88;;;33.75;;
51578;SDS011;47998;53.242;6.386;2024-02-28T10:47:03;60.70;;;33.15;;
51578;SDS011;47998;53.242;6.386;2024-02-28T10:49:32;57.85;;;33.83;;
51578;SDS011;47998;53.242;6.386;2024-02-28T10:51:59;61.15;;;35.53;;
51578;SDS011;47998;53.242;6.386;2024-02-28T10:54:29;60.97;;;31.30;;
51578;SDS011;47998;53.242;6.386;2024-02-28T10:56:56;57.17;;;34.08;;
51578;SDS011;47998;53.242;6.386;2024-02-28T10:59:23;54.53;;;32.78;;
51578;SDS011;47998;53.242;6.386;2024-02-28T11:01:53;56.92;;;34.83;;
51578;SDS011;47998;53.242;6.386;2024-02-28T11:04:19;64.55;;;33.83;;
51578;SDS011;47998;53.242;6.386;2024-02-28T11:06:51;56.13;;;33.50;;
51578;SDS011;47998;53.242;6.386;2024-02-28T11:09:19;54.55;;;32.40;;
51578;SDS011;47998;53.242;6.386;2024-02-28T11:11:50;58.80;;;32.53;;
51578;SDS011;47998;53.242;6.386;2024-02-28T11:14:17;58.63;;;32.60;;
51578;SDS011;47998;53.242;6.386;2024-02-28T11:16:47;52.65;;;31.40;;
51578;SDS011;47998;53.242;6.386;2024-02-28T11:19:20;59.17;;;32.53;;
51578;SDS011;47998;53.242;6.386;2024-02-28T11:21:55;54.88;;;31.42;;
51578;SDS011;47998;53.242;6.386;2024-02-28T11:24:27;51.10;;;30.20;;
51578;SDS011;47998;53.242;6.386;2024-02-28T11:26:55;50.47;;;30.88;;
51578;SDS011;47998;53.242;6.386;2024-02-28T11:29:25;48.92;;;31.35;;
51578;SDS011;47998;53.242;6.386;2024-02-28T11:31:53;46.30;;;29.00;;
51578;SDS011;47998;53.242;6.386;2024-02-28T11:34:20;51.25;;;30.67;;
51578;SDS011;47998;53.242;6.386;2024-02-28T11:36:47;51.35;;;30.45;;
51578;SDS011;47998;53.242;6.386;2024-02-28T11:39:14;45.75;;;27.70;;
51578;SDS011;47998;53.242;6.386;2024-02-28T11:41:40;44.85;;;29.67;;
51578;SDS011;47998;53.242;6.386;2024-02-28T11:44:07;47.33;;;30.40;;
51578;SDS011;47998;53.242;6.386;2024-02-28T11:46:32;42.58;;;28.27;;
51578;SDS011;47998;53.242;6.386;2024-02-28T11:48:58;47.60;;;29.10;;
51578;SDS011;47998;53.242;6.386;2024-02-28T11:51:26;44.08;;;26.45;;
51578;SDS011;47998;53.242;6.386;2024-02-28T11:53:51;43.50;;;27.70;;
51578;SDS011;47998;53.242;6.386;2024-02-28T11:56:17;47.83;;;28.33;;
51578;SDS011;47998;53.242;6.386;2024-02-28T11:58:52;45.65;;;29.92;;
51578;SDS011;47998;53.242;6.386;2024-02-28T12:01:19;42.70;;;28.50;;
51578;SDS011;47998;53.242;6.386;2024-02-28T12:03:57;45.55;;;28.23;;
51578;SDS011;47998;53.242;6.386;2024-02-28T12:06:23;45.85;;;28.40;;
51578;SDS011;47998;53.242;6.386;2024-02-28T12:08:48;46.80;;;29.42;;
51578;SDS011;47998;53.242;6.386;2024-02-28T12:11:15;49.75;;;30.55;;
51578;SDS011;47998;53.242;6.386;2024-02-28T12:13:40;47.38;;;31.85;;
51578;SDS011;47998;53.242;6.386;2024-02-28T12:16:07;48.58;;;31.00;;
51578;SDS011;47998;53.242;6.386;2024-02-28T12:18:34;45.90;;;30.38;;
51578;SDS011;47998;53.242;6.386;2024-02-28T12:21:00;47.33;;;28.73;;
51578;SDS011;47998;53.242;6.386;2024-02-28T12:23:26;44.40;;;30.45;;
51578;SDS011;47998;53.242;6.386;2024-02-28T12:25:51;49.05;;;30.30;;
51578;SDS011;47998;53.242;6.386;2024-02-28T12:28:17;50.78;;;32.22;;
51578;SDS011;47998;53.242;6.386;2024-02-28T12:30:43;46.17;;;30.08;;
51578;SDS011;47998;53.242;6.386;2024-02-28T12:33:09;48.42;;;32.53;;
51578;SDS011;47998;53.242;6.386;2024-02-28T12:35:39;47.00;;;30.70;;
51578;SDS011;47998;53.242;6.386;2024-02-28T12:38:06;50.45;;;31.55;;
51578;SDS011;47998;53.242;6.386;2024-02-28T12:40:31;47.60;;;31.38;;
51578;SDS011;47998;53.242;6.386;2024-02-28T12:42:57;51.85;;;29.73;;
51578;SDS011;47998;53.242;6.386;2024-02-28T12:45:23;56.15;;;32.90;;
51578;SDS011;47998;53.242;6.386;2024-02-28T12:47:49;47.33;;;31.35;;
51578;SDS011;47998;53.242;6.386;2024-02-28T12:50:14;47.70;;;31.25;;
51578;SDS011;47998;53.242;6.386;2024-02-28T12:52:40;45.83;;;30.75;;
51578;SDS011;47998;53.242;6.386;2024-02-28T12:55:06;45.65;;;31.17;;
51578;SDS011;47998;53.242;6.386;2024-02-28T12:57:32;49.28;;;31.27;;
51578;SDS011;47998;53.242;6.386;2024-02-28T12:59:57;42.83;;;28.98;;
51578;SDS011;47998;53.242;6.386;2024-02-28T13:02:23;39.65;;;26.48;;
51578;SDS011;47998;53.242;6.386;2024-02-28T13:04:49;48.78;;;31.27;;
51578;SDS011;47998;53.242;6.386;2024-02-28T13:07:15;44.20;;;29.55;;
51578;SDS011;47998;53.242;6.386;2024-02-28T13:09:41;44.55;;;28.85;;
51578;SDS011;47998;53.242;6.386;2024-02-28T13:12:07;42.95;;;29.60;;
51578;SDS011;47998;53.242;6.386;2024-02-28T13:14:33;42.95;;;29.38;;
51578;SDS011;47998;53.242;6.386;2024-02-28T13:16:59;43.85;;;29.52;;
51578;SDS011;47998;53.242;6.386;2024-02-28T13:19:25;37.22;;;25.60;;
51578;SDS011;47998;53.242;6.386;2024-02-28T13:21:51;39.28;;;28.42;;
51578;SDS011;47998;53.242;6.386;2024-02-28T13:24:17;41.25;;;29.17;;
51578;SDS011;47998;53.242;6.386;2024-02-28T13:26:43;42.58;;;27.77;;
51578;SDS011;47998;53.242;6.386;2024-02-28T13:29:09;40.72;;;28.23;;
51578;SDS011;47998;53.242;6.386;2024-02-28T13:31:34;39.83;;;26.88;;
51578;SDS011;47998;53.242;6.386;2024-02-28T13:34:01;33.67;;;24.75;;
51578;SDS011;47998;53.242;6.386;2024-02-28T13:36:28;39.97;;;26.17;;
51578;SDS011;47998;53.242;6.386;2024-02-28T13:38:55;38.30;;;25.95;;
51578;SDS011;47998;53.242;6.386;2024-02-28T13:41:21;36.88;;;27.02;;
51578;SDS011;47998;53.242;6.386;2024-02-28T13:43:47;35.47;;;25.15;;
51578;SDS011;47998;53.242;6.386;2024-02-28T13:46:12;36.50;;;26.17;;
51578;SDS011;47998;53.242;6.386;2024-02-28T13:48:39;34.70;;;25.10;;
51578;SDS011;47998;53.242;6.386;2024-02-28T13:51:05;35.38;;;24.38;;
51578;SDS011;47998;53.242;6.386;2024-02-28T13:53:31;33.53;;;23.60;;
51578;SDS011;47998;53.242;6.386;2024-02-28T13:55:56;35.72;;;25.83;;
51578;SDS011;47998;53.242;6.386;2024-02-28T13:58:22;33.03;;;24.20;;
51578;SDS011;47998;53.242;6.386;2024-02-28T14:00:48;37.17;;;25.95;;
51578;SDS011;47998;53.242;6.386;2024-02-28T14:03:14;33.97;;;24.25;;
51578;SDS011;47998;53.242;6.386;2024-02-28T14:05:40;28.25;;;21.38;;
51578;SDS011;47998;53.242;6.386;2024-02-28T14:08:06;32.63;;;24.35;;
51578;SDS011;47998;53.242;6.386;2024-02-28T14:10:33;28.92;;;21.20;;
51578;SDS011;47998;53.242;6.386;2024-02-28T14:12:59;35.13;;;23.05;;
51578;SDS011;47998;53.242;6.386;2024-02-28T14:15:25;28.80;;;22.17;;